Time;durP1;ratioP1;P1;durP2;ratioP2;P2;SDS_P1;SDS_P2;PMS_P1;PMS_P2;Temp;Humidity;BMP_temperature;BMP_pressure;BME280_temperature;BME280_humidity;BME280_pressure;Samples;Min_cycle;Max_cycle;Signal;HPM_P1;HPM_P2
2022/05/16 00:02:02;;;;;;;1076.18;998.13;;;20.40;99.90;;;;;;5041074;28;20226;-78
2022/05/16 00:04:28;;;;;;;1070.18;994.70;;;20.30;99.90;;;;;;5046856;28;20217;-78
2022/05/16 00:06:53;;;;;;;1066.70;992.15;;;20.20;99.90;;;;;;5044857;28;20214;-78
2022/05/16 00:09:19;;;;;;;1058.78;985.03;;;20.10;99.90;;;;;;5035866;28;20190;-78
2022/05/16 00:11:45;;;;;;;1056.35;982.92;;;20.00;99.90;;;;;;5036003;28;20249;-78
2022/05/16 00:14:11;;;;;;;1038.68;967.33;;;20.00;99.90;;;;;;5044606;28;20182;-79
2022/05/16 00:16:37;;;;;;;1033.45;962.38;;;20.00;99.90;;;;;;5034784;28;20222;-78
2022/05/16 00:19:04;;;;;;;1030.18;959.40;;;20.10;99.90;;;;;;5034462;28;20191;-78
2022/05/16 00:21:30;;;;;;;1010.63;942.20;;;19.90;99.90;;;;;;5035519;28;20189;-78
2022/05/16 00:23:56;;;;;;;1017.33;948.25;;;19.80;99.90;;;;;;5067394;28;20660;-78
2022/05/16 00:26:22;;;;;;;997.42;930.55;;;19.80;99.90;;;;;;5036326;28;20198;-78
2022/05/16 00:28:47;;;;;;;1007.53;939.72;;;19.90;99.90;;;;;;5067632;28;20186;-78
2022/05/16 00:31:13;;;;;;;978.28;913.58;;;19.80;99.90;;;;;;5051044;28;20183;-78
2022/05/16 00:33:41;;;;;;;963.65;900.25;;;19.90;99.90;;;;;;5050803;28;20190;-78
2022/05/16 00:36:07;;;;;;;952.28;889.95;;;19.70;99.90;;;;;;5057883;28;20217;-78
2022/05/16 00:38:33;;;;;;;966.80;902.72;;;19.60;99.90;;;;;;5043176;28;20592;-78
2022/05/16 00:41:04;;;;;;;959.17;896.20;;;19.60;99.90;;;;;;5034202;28;20190;-78
2022/05/16 00:43:57;;;;;;;935.00;874.63;;;19.60;99.90;;;;;;5035161;28;20194;-78
2022/05/16 00:46:26;;;;;;;895.30;839.00;;;19.50;99.90;;;;;;5067718;28;20189;-78
2022/05/16 00:48:52;;;;;;;906.00;848.25;;;19.40;99.90;;;;;;5034065;28;20205;-78
2022/05/16 00:51:29;;;;;;;898.17;841.47;;;19.30;99.90;;;;;;5028055;28;20272;-78
2022/05/16 00:53:58;;;;;;;895.00;838.47;;;19.20;99.90;;;;;;5035379;28;20183;-78
2022/05/16 00:56:28;;;;;;;895.53;839.30;;;19.30;99.90;;;;;;5033564;28;20260;-78
2022/05/16 00:58:54;;;;;;;898.92;842.33;;;19.20;99.90;;;;;;5085113;28;20198;-78
2022/05/16 01:06:52;;;;;;;846.88;795.05;;;19.10;99.90;;;;;;5033686;28;20197;-78
2022/05/16 01:09:21;;;;;;;821.42;772.15;;;19.20;99.90;;;;;;5050055;28;20219;-78
2022/05/16 01:11:47;;;;;;;805.95;757.67;;;19.30;99.90;;;;;;5059016;28;20563;-77
2022/05/16 01:14:45;;;;;;;752.67;710.03;;;19.30;99.90;;;;;;5033487;28;20195;-78
2022/05/16 01:17:12;;;;;;;717.65;678.25;;;19.40;99.90;;;;;;5035086;28;20196;-78
2022/05/16 01:19:37;;;;;;;736.67;695.40;;;19.50;99.90;;;;;;5034441;28;20183;-78
2022/05/16 01:22:25;;;;;;;732.65;691.83;;;19.50;99.90;;;;;;5066708;28;20190;-78
2022/05/16 01:24:56;;;;;;;691.05;653.75;;;19.60;99.90;;;;;;5076192;28;20188;-78
2022/05/16 01:27:22;;;;;;;667.15;631.70;;;19.60;99.90;;;;;;5035915;28;20194;-78
2022/05/16 01:29:49;;;;;;;667.90;633.20;;;19.60;99.90;;;;;;5016972;28;20190;-78
2022/05/16 01:32:15;;;;;;;655.45;621.65;;;19.50;99.90;;;;;;5033448;28;20183;-78
2022/05/16 01:34:44;;;;;;;634.95;603.00;;;19.50;99.90;;;;;;5033352;28;20265;-78
2022/05/16 01:37:11;;;;;;;641.65;609.13;;;19.60;99.90;;;;;;5033325;28;20183;-78
2022/05/16 01:39:37;;;;;;;603.75;574.38;;;19.60;99.90;;;;;;5032738;28;20240;-78
2022/05/16 01:42:03;;;;;;;587.95;559.67;;;19.60;99.90;;;;;;5032956;28;20652;-78
2022/05/16 01:44:28;;;;;;;593.80;565.22;;;19.60;99.90;;;;;;5062964;28;20208;-78
2022/05/16 01:46:54;;;;;;;544.72;520.03;;;19.60;99.90;;;;;;5024888;28;20691;-78
2022/05/16 01:49:20;;;;;;;557.17;531.40;;;19.50;99.90;;;;;;5049672;28;20550;-78
2022/05/16 01:51:45;;;;;;;537.22;512.78;;;19.60;99.90;;;;;;5037061;28;20187;-78
2022/05/16 01:54:11;;;;;;;482.42;461.75;;;19.50;99.90;;;;;;5032109;28;20201;-78
2022/05/16 01:56:37;;;;;;;470.67;450.23;;;19.50;99.90;;;;;;5033470;28;20277;-78
2022/05/16 01:59:06;;;;;;;405.17;388.58;;;19.50;99.90;;;;;;5016548;28;20716;-78
2022/05/16 02:01:35;;;;;;;329.00;315.65;;;19.50;99.90;;;;;;5031994;28;20194;-78
2022/05/16 02:04:01;;;;;;;333.63;320.02;;;19.40;99.90;;;;;;5052195;28;20182;-77
2022/05/16 02:06:26;;;;;;;278.23;267.17;;;19.30;99.90;;;;;;5048439;28;20191;-78
2022/05/16 02:08:52;;;;;;;295.50;282.65;;;19.50;99.90;;;;;;5047974;28;20225;-78
2022/05/16 02:11:18;;;;;;;301.05;288.60;;;19.60;99.90;;;;;;5040375;28;20259;-78
2022/05/16 02:13:46;;;;;;;368.58;353.25;;;19.50;99.90;;;;;;5033860;28;20232;-79
2022/05/16 02:16:12;;;;;;;369.75;354.83;;;19.50;99.90;;;;;;5032086;28;20214;-77
2022/05/16 02:18:38;;;;;;;379.35;364.13;;;19.50;99.90;;;;;;5030183;28;20219;-78
2022/05/16 02:26:33;;;;;;;393.80;377.73;;;19.30;99.90;;;;;;5032682;28;20717;-78
2022/05/16 02:28:59;;;;;;;336.15;322.80;;;19.20;99.90;;;;;;5053199;28;20177;-77
2022/05/16 02:31:25;;;;;;;399.08;382.75;;;19.20;99.90;;;;;;5032196;28;20194;-78
2022/05/16 02:33:51;;;;;;;422.13;404.77;;;19.20;99.90;;;;;;5034800;28;20182;-78
2022/05/16 02:36:17;;;;;;;383.00;367.63;;;19.10;99.90;;;;;;5033547;28;20835;-77
2022/05/16 02:38:43;;;;;;;419.42;401.98;;;19.20;99.90;;;;;;5047913;28;20198;-76
2022/05/16 02:41:09;;;;;;;465.75;445.42;;;19.20;99.90;;;;;;5042788;28;20272;-77
2022/05/16 02:43:35;;;;;;;460.45;440.63;;;19.20;99.90;;;;;;5045090;28;20370;-76
2022/05/16 02:46:01;;;;;;;441.23;422.33;;;19.30;99.90;;;;;;5033331;28;20260;-77
2022/05/16 02:48:27;;;;;;;418.50;401.02;;;19.20;99.90;;;;;;5048587;28;20643;-78
2022/05/16 02:50:52;;;;;;;444.63;425.52;;;19.10;99.90;;;;;;5031920;28;20281;-77
2022/05/16 02:53:18;;;;;;;442.35;423.48;;;19.20;99.90;;;;;;5033395;28;20175;-77
2022/05/16 02:55:44;;;;;;;435.50;416.98;;;19.20;99.90;;;;;;5032070;28;20218;-77
2022/05/16 02:58:10;;;;;;;423.55;406.10;;;19.20;99.90;;;;;;5032105;28;20654;-78
2022/05/16 03:00:37;;;;;;;393.80;377.58;;;19.30;99.90;;;;;;5031259;28;20203;-77
2022/05/16 03:03:04;;;;;;;374.30;359.17;;;19.30;99.90;;;;;;5042581;28;20182;-77
2022/05/16 03:05:29;;;;;;;348.15;334.02;;;19.40;99.90;;;;;;5031695;28;20187;-78
2022/05/16 03:07:55;;;;;;;392.58;376.52;;;19.40;99.90;;;;;;5033610;28;20194;-77
2022/05/16 03:10:22;;;;;;;384.10;368.38;;;19.60;99.90;;;;;;5031954;28;20194;-77
2022/05/16 03:12:49;;;;;;;336.13;322.63;;;19.50;99.90;;;;;;5043161;28;20189;-77
2022/05/16 03:15:16;;;;;;;353.92;339.85;;;19.50;99.90;;;;;;5051505;28;20426;-77
2022/05/16 03:17:42;;;;;;;406.27;389.15;;;19.50;99.90;;;;;;5048033;28;20670;-77
2022/05/16 03:20:12;;;;;;;319.48;307.02;;;19.50;99.90;;;;;;5046801;28;20182;-77
2022/05/16 03:22:37;;;;;;;366.70;351.98;;;19.40;99.90;;;;;;5034941;28;20555;-76
2022/05/16 03:25:04;;;;;;;334.02;320.98;;;19.50;99.90;;;;;;5031824;28;20194;-77
2022/05/16 03:27:29;;;;;;;315.05;302.70;;;19.40;99.90;;;;;;5015536;28;20339;-77
2022/05/16 03:29:55;;;;;;;340.33;326.80;;;19.40;99.90;;;;;;5028727;28;20690;-77
2022/05/16 03:32:21;;;;;;;323.65;310.88;;;19.40;99.90;;;;;;5033025;28;20270;-78
2022/05/16 03:34:50;;;;;;;353.45;339.17;;;19.40;99.90;;;;;;5031200;28;20225;-77
2022/05/16 03:37:17;;;;;;;329.98;317.08;;;19.40;99.90;;;;;;5049416;28;20647;-77
2022/05/16 03:42:30;;;;;;;259.95;249.65;;;19.40;99.90;;;;;;5035670;28;20724;-77
2022/05/16 03:44:56;;;;;;;367.10;352.30;;;19.50;99.90;;;;;;5031444;28;20195;-77
2022/05/16 03:47:21;;;;;;;268.63;258.38;;;19.50;99.90;;;;;;5045982;28;20189;-77
2022/05/16 03:49:47;;;;;;;289.40;278.30;;;19.50;99.90;;;;;;5039899;28;20324;-77
2022/05/16 03:52:14;;;;;;;284.05;272.77;;;19.60;99.90;;;;;;5068258;28;20632;-77
2022/05/16 03:54:40;;;;;;;296.83;285.38;;;19.70;99.90;;;;;;5077844;28;20190;-77
2022/05/16 03:57:06;;;;;;;276.27;265.55;;;19.70;99.90;;;;;;5035548;28;20183;-77
2022/05/16 03:59:32;;;;;;;290.80;279.65;;;19.80;99.90;;;;;;5034446;28;20187;-77
2022/05/16 04:01:58;;;;;;;320.88;308.08;;;19.70;99.90;;;;;;5037028;28;20206;-77
2022/05/16 04:04:27;;;;;;;305.70;293.23;;;19.70;99.90;;;;;;5034437;28;20266;-77
2022/05/16 04:06:55;;;;;;;508.40;485.27;;;19.70;99.90;;;;;;5036180;28;20195;-77
2022/05/16 04:09:23;;;;;;;498.27;476.30;;;19.80;99.90;;;;;;5030762;28;20229;-77
2022/05/16 04:11:49;;;;;;;496.15;474.10;;;19.90;99.90;;;;;;5034917;28;20545;-77
2022/05/16 04:14:15;;;;;;;504.40;482.00;;;19.90;99.90;;;;;;5042073;28;20190;-77
2022/05/16 04:16:41;;;;;;;515.40;491.00;;;20.00;99.90;;;;;;5048768;28;20226;-77
2022/05/16 04:19:07;;;;;;;513.83;491.00;;;19.90;99.90;;;;;;5035619;28;20183;-77
2022/05/16 04:21:34;;;;;;;494.63;472.23;;;19.90;99.90;;;;;;5034646;28;20221;-77
2022/05/16 04:24:01;;;;;;;506.50;483.85;;;19.80;99.90;;;;;;5029370;28;20224;-76
2022/05/16 04:26:27;;;;;;;478.30;457.35;;;19.80;99.90;;;;;;5034397;28;20616;-77
2022/05/16 04:28:53;;;;;;;466.58;445.85;;;19.70;99.90;;;;;;5034003;28;20712;-77
2022/05/16 04:31:18;;;;;;;477.92;457.35;;;19.70;99.90;;;;;;5034160;28;20222;-77
2022/05/16 04:33:44;;;;;;;482.55;461.08;;;19.80;99.90;;;;;;5035558;28;20284;-77
2022/05/16 04:36:10;;;;;;;487.65;465.63;;;19.80;99.90;;;;;;5032855;28;20240;-77
2022/05/16 04:38:35;;;;;;;514.35;491.10;;;19.90;99.90;;;;;;5052566;28;20190;-77
2022/05/16 04:43:45;;;;;;;523.67;499.45;;;20.40;99.90;;;;;;5035311;28;20224;-77
2022/05/16 04:46:11;;;;;;;582.60;554.05;;;20.20;99.90;;;;;;5052498;28;20635;-77
2022/05/16 04:48:37;;;;;;;565.05;537.97;;;20.00;99.90;;;;;;5070021;28;20186;-77
2022/05/16 04:51:03;;;;;;;518.67;495.05;;;20.00;99.90;;;;;;5041838;28;20189;-77
2022/05/16 04:53:29;;;;;;;468.77;448.55;;;20.00;99.90;;;;;;5042571;28;20195;-76
2022/05/16 04:55:55;;;;;;;493.45;471.35;;;20.30;99.90;;;;;;5035175;28;20264;-76
2022/05/16 04:58:23;;;;;;;441.23;422.15;;;20.50;99.90;;;;;;5033935;28;20187;-77
2022/05/16 05:00:49;;;;;;;468.67;447.48;;;20.50;99.90;;;;;;5033822;28;20203;-77
2022/05/16 05:03:14;;;;;;;466.80;446.10;;;20.60;99.90;;;;;;5043998;28;20190;-77
2022/05/16 05:05:40;;;;;;;447.45;427.73;;;20.60;99.90;;;;;;5042251;28;20195;-77
2022/05/16 05:08:06;;;;;;;429.88;411.58;;;20.60;99.90;;;;;;5047279;28;20509;-76
2022/05/16 05:16:09;;;;;;;360.60;346.23;;;20.60;99.90;;;;;;5033103;28;20322;-76
2022/05/16 05:18:35;;;;;;;339.35;325.45;;;20.60;99.90;;;;;;5067017;28;20210;-76
2022/05/16 05:21:06;;;;;;;373.00;356.77;;;20.70;99.90;;;;;;5034604;28;20179;-76
2022/05/16 05:23:37;;;;;;;329.20;314.75;;;20.90;99.90;;;;;;5034567;28;20163;-76
2022/05/16 05:26:03;;;;;;;332.05;317.73;;;21.00;99.90;;;;;;5034736;28;20549;-76
2022/05/16 05:28:28;;;;;;;336.77;322.60;;;21.00;99.90;;;;;;5034259;28;20186;-77
2022/05/16 05:30:55;;;;;;;315.17;302.55;;;21.10;99.90;;;;;;5033399;28;20195;-76
2022/05/16 05:33:21;;;;;;;288.52;276.90;;;21.10;99.90;;;;;;5033141;28;20178;-77
2022/05/16 05:35:47;;;;;;;240.73;230.85;;;21.10;99.90;;;;;;5034305;28;20549;-77
2022/05/16 05:38:12;;;;;;;246.38;236.30;;;21.20;99.90;;;;;;5066698;28;20277;-76
2022/05/16 05:40:38;;;;;;;201.13;192.35;;;21.30;99.90;;;;;;5033940;28;20711;-77
2022/05/16 05:43:06;;;;;;;248.02;237.57;;;21.30;99.90;;;;;;5066032;28;20187;-76
2022/05/16 05:45:33;;;;;;;212.15;202.52;;;21.40;99.90;;;;;;5034296;28;20186;-77
2022/05/16 05:47:59;;;;;;;221.98;211.82;;;21.50;99.90;;;;;;5034094;28;20228;-78
2022/05/16 05:50:25;;;;;;;189.55;180.68;;;21.70;99.90;;;;;;5030520;28;20206;-77
2022/05/16 05:52:51;;;;;;;198.10;188.07;;;21.90;99.90;;;;;;5033184;28;20194;-77
2022/05/16 05:55:17;;;;;;;185.32;175.65;;;22.10;99.90;;;;;;5016407;28;20210;-77
2022/05/16 05:57:42;;;;;;;165.13;156.45;;;22.10;99.90;;;;;;5033941;28;20190;-77
2022/05/16 06:00:09;;;;;;;165.13;155.93;;;22.10;99.90;;;;;;5049029;28;20191;-77
2022/05/16 06:02:40;;;;;;;176.60;166.65;;;22.10;99.90;;;;;;5049225;28;20273;-76
2022/05/16 06:05:11;;;;;;;161.90;152.82;;;22.10;99.90;;;;;;5046095;28;20190;-76
2022/05/16 06:07:37;;;;;;;169.15;159.85;;;22.00;99.90;;;;;;5052107;28;20174;-76
2022/05/16 06:10:04;;;;;;;167.07;157.60;;;21.90;99.90;;;;;;5044355;28;20182;-76
2022/05/16 06:12:30;;;;;;;165.75;156.80;;;22.00;99.90;;;;;;5032092;28;20316;-76
2022/05/16 06:14:59;;;;;;;191.55;181.52;;;22.00;99.90;;;;;;5048349;28;20308;-75
2022/05/16 06:17:25;;;;;;;161.00;152.02;;;21.90;99.90;;;;;;5032380;28;20191;-76
2022/05/16 06:19:52;;;;;;;181.00;171.30;;;21.90;99.90;;;;;;5032796;28;20193;-76
2022/05/16 06:22:17;;;;;;;189.10;177.45;;;22.00;99.90;;;;;;5040042;28;20680;-77
2022/05/16 06:27:29;;;;;;;197.82;186.95;;;22.20;99.90;;;;;;5048146;28;20309;-77
2022/05/16 06:29:56;;;;;;;181.40;171.40;;;22.30;99.90;;;;;;5032439;28;20555;-77
2022/05/16 06:32:21;;;;;;;183.52;173.48;;;22.40;99.90;;;;;;5032557;28;20309;-78
2022/05/16 06:34:48;;;;;;;182.77;172.68;;;22.40;99.90;;;;;;5037818;28;20653;-78
2022/05/16 06:37:14;;;;;;;188.55;177.48;;;22.30;99.90;;;;;;5040315;28;20556;-78
2022/05/16 06:39:40;;;;;;;180.02;169.75;;;22.40;99.90;;;;;;5048969;28;20210;-78
2022/05/16 06:42:06;;;;;;;223.82;211.43;;;22.40;99.90;;;;;;5038428;28;20214;-79
2022/05/16 06:44:32;;;;;;;212.65;201.18;;;22.50;99.90;;;;;;5041910;28;20662;-77
2022/05/16 06:46:57;;;;;;;272.85;257.67;;;22.60;99.90;;;;;;5034556;28;20270;-79
2022/05/16 06:49:23;;;;;;;200.13;188.52;;;22.60;99.90;;;;;;5032934;28;20548;-78
2022/05/16 06:51:49;;;;;;;494.83;470.48;;;22.60;99.90;;;;;;5048547;28;20658;-78
2022/05/16 06:54:15;;;;;;;513.53;487.60;;;22.60;99.90;;;;;;5032661;28;20240;-78
2022/05/16 06:56:40;;;;;;;517.85;491.60;;;22.90;99.90;;;;;;5031554;28;20206;-78
2022/05/16 06:59:06;;;;;;;414.58;393.48;;;23.00;99.90;;;;;;5037593;28;20261;-78
2022/05/16 07:01:32;;;;;;;511.48;485.50;;;23.10;99.90;;;;;;5033590;28;20224;-78
2022/05/16 07:03:58;;;;;;;479.65;455.15;;;23.10;99.90;;;;;;5047353;28;20209;-77
2022/05/16 07:06:23;;;;;;;415.70;394.58;;;23.20;99.90;;;;;;5020114;28;20607;-79
2022/05/16 07:08:49;;;;;;;463.42;440.33;;;23.30;99.90;;;;;;5021419;28;20187;-79
2022/05/16 07:11:15;;;;;;;488.50;463.88;;;23.30;99.90;;;;;;5046344;28;20182;-78
2022/05/16 07:13:40;;;;;;;494.80;468.33;;;23.40;99.90;;;;;;5052677;28;20185;-79
2022/05/16 07:16:06;;;;;;;432.30;409.52;;;23.70;99.90;;;;;;5042198;28;20241;-79
2022/05/16 07:18:32;;;;;;;401.63;380.75;;;24.00;99.90;;;;;;5041672;28;20209;-79
2022/05/16 07:20:59;;;;;;;431.67;408.35;;;24.40;99.90;;;;;;5046662;28;20535;-80
2022/05/16 07:23:26;;;;;;;401.73;379.70;;;25.80;99.90;;;;;;5042380;28;20206;-80
2022/05/16 07:28:37;;;;;;;262.05;245.18;;;27.70;99.90;;;;;;5036461;28;20274;-81
2022/05/16 07:31:04;;;;;;;290.27;271.60;;;27.60;99.90;;;;;;5065370;28;20654;-79
2022/05/16 07:33:29;;;;;;;284.77;267.17;;;27.50;99.90;;;;;;5042111;28;20188;-79
2022/05/16 07:35:55;;;;;;;258.35;241.45;;;28.00;99.90;;;;;;5047710;28;20299;-80
2022/05/16 07:38:23;;;;;;;261.00;243.23;;;28.80;99.90;;;;;;5049131;28;20334;-80
2022/05/16 07:40:49;;;;;;;273.75;255.40;;;29.90;99.90;;;;;;5044625;28;20185;-81
2022/05/16 07:43:15;;;;;;;312.10;292.20;;;30.90;99.90;;;;;;5054851;28;20273;-80
2022/05/16 07:45:42;;;;;;;262.10;244.60;;;32.00;99.90;;;;;;5048380;28;20242;-79
2022/05/16 07:48:07;;;;;;;268.52;250.60;;;32.20;99.90;;;;;;5049246;28;20181;-80
2022/05/16 07:50:36;;;;;;;262.15;245.02;;;31.50;99.90;;;;;;5055323;28;20214;-81
2022/05/16 07:53:04;;;;;;;282.95;265.08;;;30.60;99.90;;;;;;5049418;28;20177;-81
2022/05/16 07:55:31;;;;;;;295.98;277.35;;;30.30;99.90;;;;;;5049440;28;20201;-80
2022/05/16 07:57:56;;;;;;;311.08;291.98;;;29.90;99.90;;;;;;5037994;28;20560;-80
2022/05/16 08:00:23;;;;;;;264.10;247.05;;;30.80;99.90;;;;;;5048999;28;20185;-80
2022/05/16 08:02:50;;;;;;;262.30;244.88;;;31.20;99.90;;;;;;5054336;28;20181;-80
2022/05/16 08:05:17;;;;;;;314.27;295.10;;;31.80;99.90;;;;;;5031577;28;20189;-80
2022/05/16 08:10:31;;;;;;;283.13;264.13;;;32.70;99.90;;;;;;5045555;28;20197;-81
2022/05/16 08:13:02;;;;;;;331.15;310.33;;;33.20;99.90;;;;;;5027636;28;20264;-81
2022/05/16 08:15:30;;;;;;;305.90;286.58;;;33.70;99.90;;;;;;5035744;28;20242;-69
2022/05/16 08:17:57;;;;;;;320.30;299.90;;;33.90;99.90;;;;;;5036064;28;20201;-68
2022/05/16 08:20:23;;;;;;;344.33;323.08;;;33.90;99.90;;;;;;5035624;28;20629;-68
2022/05/16 08:22:49;;;;;;;322.05;301.98;;;33.00;99.90;;;;;;5035872;28;20208;-68
2022/05/16 08:25:15;;;;;;;342.98;322.67;;;31.60;99.90;;;;;;5034415;28;20250;-71
2022/05/16 08:27:41;;;;;;;261.42;244.73;;;30.80;99.90;;;;;;5049220;28;20177;-71
2022/05/16 08:30:08;;;;;;;311.48;292.27;;;30.00;99.90;;;;;;5047332;28;20554;-68
2022/05/16 08:32:34;;;;;;;265.35;249.32;;;29.30;99.90;;;;;;5035447;28;20185;-68
2022/05/16 08:35:02;;;;;;;262.45;246.60;;;28.60;99.90;;;;;;5035037;28;20205;-69
2022/05/16 08:40:14;;;;;;;223.93;209.35;;;30.10;99.90;;;;;;5043894;28;20251;-75
2022/05/16 08:42:54;;;;;;;262.55;245.93;;;31.30;99.90;;;;;;5043403;28;20199;-74
2022/05/16 08:45:37;;;;;;;260.40;244.00;;;31.80;99.90;;;;;;5039064;28;20183;-75
2022/05/16 08:48:47;;;;;;;236.88;221.38;;;31.90;99.90;;;;;;5043211;28;20174;-76
2022/05/16 08:51:21;;;;;;;276.98;259.83;;;32.70;99.90;;;;;;4998120;28;20656;-78
2022/05/16 08:53:50;;;;;;;291.38;273.25;;;32.50;99.90;;;;;;5036510;28;20660;-75
2022/05/16 08:56:23;;;;;;;310.00;290.90;;;32.90;99.90;;;;;;5049730;28;20206;-74
2022/05/16 08:58:57;;;;;;;273.38;256.13;;;32.30;99.90;;;;;;5035845;28;20190;-76
2022/05/16 09:02:05;;;;;;;284.88;267.05;;;31.50;99.90;;;;;;5052139;28;20235;-73
2022/05/16 09:04:45;;;;;;;275.65;258.90;;;30.50;99.90;;;;;;5017323;28;20239;-72
2022/05/16 09:07:21;;;;;;;253.93;238.40;;;29.00;99.90;;;;;;5041943;28;20204;-70
2022/05/16 09:10:02;;;;;;;246.55;231.60;;;28.20;99.90;;;;;;5041219;28;20273;-70
2022/05/16 09:12:43;;;;;;;259.48;243.63;;;27.50;99.90;;;;;;5033056;28;20177;-72
2022/05/16 09:15:09;;;;;;;275.80;260.10;;;27.20;99.90;;;;;;5053657;28;20605;-71
2022/05/16 09:18:04;;;;;;;271.65;256.15;;;26.90;99.90;;;;;;5042697;28;20182;-70
2022/05/16 09:20:49;;;;;;;294.67;278.33;;;26.30;99.90;;;;;;5034493;28;20183;-70
2022/05/16 09:24:05;;;;;;;311.67;294.60;;;26.20;99.90;;;;;;5079431;28;20177;-70
2022/05/16 09:27:09;;;;;;;326.10;308.40;;;26.40;99.90;;;;;;5014903;28;20222;-70
2022/05/16 09:29:45;;;;;;;385.50;365.00;;;26.20;99.90;;;;;;5014789;28;20541;-71
2022/05/16 09:32:35;;;;;;;445.75;421.67;;;25.90;99.90;;;;;;5018926;28;20190;-70
2022/05/16 09:35:00;;;;;;;452.67;428.45;;;25.50;99.90;;;;;;5050856;28;20212;-72
2022/05/16 09:37:26;;;;;;;537.63;509.00;;;25.30;99.90;;;;;;5052244;28;20273;-72
2022/05/16 09:39:54;;;;;;;546.90;516.83;;;25.10;99.90;;;;;;5051602;28;20239;-71
2022/05/16 09:42:28;;;;;;;577.60;545.53;;;25.10;99.90;;;;;;5050679;28;20175;-72
2022/05/16 09:44:56;;;;;;;587.88;553.58;;;25.30;99.90;;;;;;5051926;28;20174;-72
2022/05/16 09:47:37;;;;;;;593.92;560.50;;;25.30;99.90;;;;;;5051448;28;20192;-72
2022/05/16 09:50:02;;;;;;;646.03;607.97;;;25.20;99.90;;;;;;5043840;28;20651;-72
2022/05/16 09:52:33;;;;;;;737.22;693.22;;;25.20;99.90;;;;;;5049733;28;20213;-70
2022/05/16 09:55:11;;;;;;;751.30;705.33;;;25.10;99.90;;;;;;5036900;28;20229;-71
2022/05/16 09:57:48;;;;;;;791.97;744.03;;;25.10;99.90;;;;;;5047558;28;20649;-72
2022/05/16 10:00:21;;;;;;;759.58;714.10;;;24.90;99.90;;;;;;5033611;28;20201;-72
2022/05/16 10:03:26;;;;;;;755.72;709.92;;;24.90;99.90;;;;;;5033923;28;20198;-71
2022/05/16 10:05:53;;;;;;;716.17;674.30;;;24.70;99.90;;;;;;5059726;28;20202;-67
2022/05/16 10:08:39;;;;;;;765.63;719.22;;;24.50;99.90;;;;;;5080335;28;20182;-70
2022/05/16 10:11:17;;;;;;;772.47;725.88;;;24.20;99.90;;;;;;5050399;28;20193;-69
2022/05/16 10:13:44;;;;;;;872.30;815.95;;;23.90;99.90;;;;;;5042875;28;20200;-69
2022/05/16 10:16:11;;;;;;;906.60;848.13;;;23.70;99.90;;;;;;5050768;28;20542;-69
2022/05/16 10:18:47;;;;;;;914.42;852.75;;;23.50;99.90;;;;;;5033941;28;20191;-71
2022/05/16 10:21:36;;;;;;;955.75;889.13;;;23.30;99.90;;;;;;5049626;28;20184;-73
2022/05/16 10:24:09;;;;;;;878.33;818.10;;;23.20;99.90;;;;;;5039366;28;20178;-73
2022/05/16 10:26:40;;;;;;;878.08;817.55;;;22.90;99.90;;;;;;5045454;28;20190;-72
2022/05/16 10:29:14;;;;;;;866.63;808.10;;;22.80;99.90;;;;;;5033579;28;20311;-72
2022/05/16 10:34:46;;;;;;;663.10;620.15;;;22.90;99.90;;;;;;5033379;28;20197;-73
2022/05/16 10:37:13;;;;;;;687.00;644.47;;;23.00;99.90;;;;;;5064796;28;20198;-73
2022/05/16 10:39:43;;;;;;;686.95;643.13;;;23.30;99.90;;;;;;5048440;28;20182;-75
2022/05/16 10:42:15;;;;;;;701.67;655.88;;;23.50;99.90;;;;;;5044608;28;20544;-73
2022/05/16 10:44:49;;;;;;;679.22;635.58;;;23.40;99.90;;;;;;5046905;28;20189;-73
2022/05/16 10:47:37;;;;;;;558.95;524.17;;;23.80;99.90;;;;;;5051261;28;20181;-75
2022/05/16 10:50:21;;;;;;;408.23;380.83;;;24.30;99.90;;;;;;5048800;28;20174;-72
2022/05/16 10:53:10;;;;;;;399.40;370.08;;;24.60;99.90;;;;;;5036687;28;20850;-72
2022/05/16 10:56:07;;;;;;;469.10;433.73;;;24.80;99.90;;;;;;5048574;28;20264;-73
2022/05/16 10:58:53;;;;;;;518.90;479.50;;;25.30;99.90;;;;;;5012073;28;20245;-73
2022/05/16 11:01:32;;;;;;;628.67;581.47;;;25.80;99.90;;;;;;5079027;28;20277;-73
2022/05/16 11:04:15;;;;;;;769.63;710.47;;;25.80;99.90;;;;;;5056286;28;20247;-73
2022/05/16 11:06:44;;;;;;;841.10;774.97;;;26.30;99.90;;;;;;5055193;28;20180;-75
2022/05/16 11:09:25;;;;;;;880.42;811.92;;;26.20;99.90;;;;;;5055215;28;20186;-75
2022/05/16 11:11:57;;;;;;;919.17;846.17;;;25.90;99.90;;;;;;5037278;28;20224;-75
2022/05/16 11:14:38;;;;;;;804.17;742.25;;;25.90;99.90;;;;;;5034908;28;20647;-75
2022/05/16 11:17:22;;;;;;;774.47;715.05;;;25.70;99.90;;;;;;5035374;28;20198;-75
2022/05/16 11:20:00;;;;;;;852.78;787.83;;;25.60;99.90;;;;;;5037605;28;20182;-75
2022/05/16 11:22:41;;;;;;;777.55;718.25;;;25.70;99.90;;;;;;5035226;28;20186;-75
2022/05/16 11:25:23;;;;;;;897.25;827.50;;;25.80;99.90;;;;;;5036899;28;20217;-75
2022/05/16 11:28:33;;;;;;;930.67;856.33;;;25.90;99.90;;;;;;5036603;28;20174;-75
2022/05/16 11:31:08;;;;;;;1063.22;974.97;;;26.00;99.90;;;;;;5034336;28;20178;-75
2022/05/16 11:33:51;;;;;;;1029.25;945.97;;;25.60;99.90;;;;;;5043249;28;20186;-76
2022/05/16 11:36:39;;;;;;;1111.97;999.90;;;25.80;99.90;;;;;;5054298;28;20214;-73
2022/05/16 11:39:18;;;;;;;1147.55;999.90;;;25.80;99.90;;;;;;5050748;28;20232;-73
2022/05/16 11:42:03;;;;;;;1148.28;999.90;;;25.90;99.90;;;;;;5050112;28;20181;-77
2022/05/16 11:45:08;;;;;;;1137.90;999.90;;;25.60;99.90;;;;;;5047854;28;20178;-77
2022/05/16 11:47:46;;;;;;;1186.65;999.90;;;25.80;99.90;;;;;;5036736;28;20324;-77
2022/05/16 11:50:30;;;;;;;1175.68;999.90;;;25.80;99.90;;;;;;5047978;28;20210;-77
2022/05/16 11:53:17;;;;;;;1205.97;999.90;;;25.60;99.90;;;;;;5034777;28;20643;-77
2022/05/16 12:01:39;;;;;;;1223.07;999.90;;;25.50;99.90;;;;;;5032831;28;20257;-77
2022/05/16 12:04:15;;;;;;;1232.65;999.90;;;25.50;99.90;;;;;;5065677;28;20189;-77
2022/05/16 12:06:43;;;;;;;1228.15;999.90;;;25.50;99.90;;;;;;5047492;28;20194;-77
2022/05/16 12:09:16;;;;;;;1233.85;999.90;;;25.70;99.90;;;;;;5033246;28;20178;-78
2022/05/16 12:12:04;;;;;;;1276.20;999.90;;;25.90;99.90;;;;;;5067964;28;20203;-78
2022/05/16 12:14:34;;;;;;;1279.53;999.90;;;26.00;99.90;;;;;;5054098;28;20547;-77
2022/05/16 12:17:18;;;;;;;1270.00;999.90;;;25.90;99.90;;;;;;5045906;28;20210;-77
2022/05/16 12:19:52;;;;;;;1279.53;999.90;;;25.90;99.90;;;;;;5050013;28;20187;-77
2022/05/16 12:22:33;;;;;;;1268.97;999.90;;;25.90;99.90;;;;;;5035623;28;20266;-77
2022/05/16 12:25:24;;;;;;;1270.47;999.90;;;26.20;99.90;;;;;;5035689;28;20667;-77
2022/05/16 12:28:12;;;;;;;1296.45;999.90;;;26.40;99.90;;;;;;5033494;28;20202;-77
2022/05/16 12:30:38;;;;;;;1298.38;999.90;;;26.40;99.90;;;;;;5036309;28;20271;-77
2022/05/16 12:33:42;;;;;;;1293.40;999.90;;;26.40;99.90;;;;;;5047269;28;20187;-76
2022/05/16 12:36:23;;;;;;;1305.72;999.90;;;26.40;99.90;;;;;;5035365;28;20213;-77
2022/05/16 12:39:03;;;;;;;1297.28;999.90;;;25.80;99.90;;;;;;5050537;28;20187;-77
2022/05/16 12:41:51;;;;;;;1258.55;999.90;;;25.20;99.90;;;;;;5067279;28;20171;-77
2022/05/16 12:44:47;;;;;;;1255.90;999.90;;;25.00;99.90;;;;;;5067158;28;20197;-77
2022/05/16 12:47:38;;;;;;;1257.18;999.90;;;25.30;99.90;;;;;;5067400;28;20632;-77
2022/05/16 12:50:13;;;;;;;1271.32;999.90;;;25.50;99.90;;;;;;5035138;28;20261;-77
2022/05/16 12:53:06;;;;;;;1259.78;999.90;;;25.50;99.90;;;;;;5042262;28;20216;-77
2022/05/16 12:55:53;;;;;;;1294.72;999.90;;;25.80;99.90;;;;;;5053120;28;20569;-77
2022/05/16 12:58:41;;;;;;;1307.28;999.90;;;25.70;99.90;;;;;;5042376;28;20183;-77
2022/05/16 13:01:09;;;;;;;1310.53;999.90;;;26.10;99.90;;;;;;5051215;28;20190;-77
2022/05/16 13:03:57;;;;;;;1299.85;999.90;;;26.30;99.90;;;;;;5035144;28;20198;-77
2022/05/16 13:06:28;;;;;;;1304.95;999.90;;;26.20;99.90;;;;;;5034178;28;20183;-77
2022/05/16 13:09:13;;;;;;;1317.22;999.90;;;26.50;99.90;;;;;;5042995;28;20236;-76